createdAt,value
2019-01-10T00:05:02.099Z,4.56
2019-01-10T00:10:11.022Z,3.69
2019-01-10T00:15:20.052Z,4.16
2019-01-10T00:20:28.960Z,4.59
2019-01-10T00:25:37.882Z,3.74
2019-01-10T00:30:46.870Z,4.31
2019-01-10T00:35:55.803Z,4.03
2019-01-10T00:41:04.828Z,3.98
2019-01-10T00:46:13.731Z,3.33
2019-01-10T00:51:22.674Z,3.67
2019-01-10T00:56:31.570Z,3.35
2019-01-10T01:01:40.587Z,3.07
2019-01-10T01:06:49.490Z,3.06
2019-01-10T01:11:58.414Z,3.06
2019-01-10T01:17:07.322Z,3.42
2019-01-10T01:22:16.303Z,2.94
2019-01-10T01:27:25.209Z,3.42
2019-01-10T01:32:34.195Z,3.00
2019-01-10T01:37:43.107Z,2.95
2019-01-10T01:42:52.083Z,2.70
2019-01-10T01:48:01.006Z,2.79
2019-01-10T01:53:09.950Z,3.04
2019-01-10T01:58:18.880Z,3.30
2019-01-10T02:03:27.878Z,3.06
2019-01-10T02:08:36.798Z,3.04
2019-01-10T02:13:45.802Z,2.48
2019-01-10T02:18:54.722Z,2.79
2019-01-10T02:24:03.731Z,2.84
2019-01-10T02:29:12.649Z,2.90
2019-01-10T02:34:21.622Z,2.73
2019-01-10T02:39:30.570Z,3.21
2019-01-10T02:44:39.570Z,3.10
2019-01-10T02:49:48.507Z,2.78
2019-01-10T02:54:57.451Z,2.86
2019-01-10T03:00:06.414Z,2.68
2019-01-10T03:05:15.391Z,2.86
2019-01-10T03:10:24.323Z,3.10
2019-01-10T03:15:33.306Z,2.95
2019-01-10T03:20:42.227Z,3.33
2019-01-10T03:25:51.178Z,3.08
2019-01-10T03:31:00.087Z,2.99
2019-01-10T03:36:09.028Z,2.77
2019-01-10T03:41:17.982Z,2.84
2019-01-10T03:46:26.944Z,2.48
2019-01-10T03:51:35.884Z,2.95
2019-01-10T03:56:44.858Z,3.02
2019-01-10T04:01:53.763Z,3.02
2019-01-10T04:07:02.714Z,3.33
2019-01-10T04:12:11.659Z,3.54
2019-01-10T04:17:20.807Z,3.95
2019-01-10T04:22:29.766Z,3.48
2019-01-10T04:27:38.736Z,3.22
2019-01-10T04:32:47.651Z,3.35
2019-01-10T04:37:56.594Z,3.46
2019-01-10T04:43:05.554Z,3.42
2019-01-10T04:48:14.601Z,2.62
2019-01-10T04:53:23.556Z,2.33
2019-01-10T04:58:32.484Z,2.87
2019-01-10T05:03:41.398Z,2.86
2019-01-10T05:08:50.374Z,2.74
2019-01-10T05:24:05.764Z,3.35
2019-01-10T05:29:14.707Z,3.12
2019-01-10T05:34:23.666Z,2.94
2019-01-10T05:39:32.618Z,3.07
2019-01-10T05:44:41.601Z,2.97
2019-01-10T05:49:50.555Z,3.28
2019-01-10T05:54:59.510Z,3.42
2019-01-10T06:00:08.450Z,3.63
2019-01-10T06:05:17.483Z,3.66
2019-01-10T06:10:26.397Z,3.06
2019-01-10T06:15:35.434Z,3.77
2019-01-10T06:20:44.391Z,3.93
2019-01-10T06:25:53.373Z,3.58
2019-01-10T06:31:02.288Z,5.35
2019-01-10T06:36:11.314Z,5.34
2019-01-10T06:41:20.247Z,4.87
2019-01-10T06:46:31.190Z,4.17
2019-01-10T06:51:37.743Z,3.65
2019-01-10T06:56:46.714Z,4.23
2019-01-10T07:01:55.675Z,6.63
2019-01-10T07:07:04.673Z,5.67
2019-01-10T07:12:13.610Z,6.75
2019-01-10T07:17:22.601Z,6.28
2019-01-10T07:22:31.562Z,5.26
2019-01-10T07:27:40.531Z,5.47
2019-01-10T07:32:49.442Z,4.01
2019-01-10T07:37:58.454Z,4.54
2019-01-10T07:43:07.450Z,4.05
2019-01-10T07:48:16.496Z,4.60
2019-01-10T07:53:25.443Z,5.24
2019-01-10T07:58:34.438Z,5.08
2019-01-10T08:03:43.398Z,5.49
2019-01-10T08:08:52.498Z,4.69
2019-01-10T08:14:01.445Z,4.31
2019-01-10T08:19:10.450Z,4.34
2019-01-10T08:24:19.396Z,4.82
2019-01-10T08:29:28.410Z,4.51
2019-01-10T08:34:37.366Z,4.64
2019-01-10T08:39:46.361Z,4.24
2019-01-10T08:44:55.416Z,4.00
2019-01-10T08:50:04.299Z,4.44
2019-01-10T08:55:13.215Z,3.89
2019-01-10T09:00:22.178Z,4.06
2019-01-10T09:05:31.135Z,4.34
2019-01-10T09:10:40.522Z,4.39
2019-01-10T09:15:48.655Z,4.26
2019-01-10T09:21:04.268Z,4.41
2019-01-10T09:26:06.103Z,4.40
2019-01-10T09:31:15.142Z,4.27
2019-01-10T09:36:24.103Z,4.33
2019-01-10T09:41:33.086Z,4.49
2019-01-10T09:46:42.057Z,4.79
2019-01-10T09:51:51.063Z,5.11
2019-01-10T09:56:59.994Z,5.18
2019-01-10T10:02:09.026Z,5.56
2019-01-10T10:07:17.982Z,4.96
2019-01-10T10:12:26.994Z,4.78
2019-01-10T10:17:35.948Z,4.30
2019-01-10T10:22:44.906Z,4.49
2019-01-10T10:27:53.833Z,4.73
2019-01-10T10:33:02.835Z,4.55
2019-01-10T10:38:11.823Z,4.39
2019-01-10T10:43:20.791Z,4.79
2019-01-10T10:48:29.728Z,4.85
2019-01-10T10:53:38.811Z,4.73
2019-01-10T10:58:47.767Z,4.49
2019-01-10T11:03:56.755Z,4.74
2019-01-10T11:09:09.333Z,4.29
2019-01-10T11:14:17.014Z,4.25
2019-01-10T11:19:15.954Z,4.10
2019-01-10T11:24:24.926Z,4.28
2019-01-10T11:29:33.854Z,4.54
2019-01-10T11:34:42.862Z,4.89
2019-01-10T11:39:51.893Z,3.94
2019-01-10T11:45:00.846Z,4.51
2019-01-10T11:50:09.782Z,3.80
2019-01-10T11:55:18.738Z,4.25
2019-01-10T12:00:27.683Z,3.99
2019-01-10T12:05:36.610Z,3.76
2019-01-10T12:10:45.535Z,4.38
2019-01-10T12:15:54.482Z,3.52
2019-01-10T12:21:03.426Z,3.93
2019-01-10T12:26:12.411Z,3.72
2019-01-10T12:31:21.366Z,3.08
2019-01-10T12:36:30.310Z,3.55
2019-01-10T12:41:39.236Z,3.59
2019-01-10T12:46:48.250Z,3.71
2019-01-10T12:51:57.214Z,3.53
2019-01-10T12:57:06.197Z,3.36
2019-01-10T13:02:15.154Z,3.11
2019-01-10T13:07:24.221Z,4.33
2019-01-10T13:12:33.142Z,4.13
2019-01-10T13:17:42.130Z,2.86
2019-01-10T13:22:51.067Z,3.25
2019-01-10T13:28:00.013Z,2.95
2019-01-10T13:33:09.023Z,3.00
2019-01-10T13:38:17.974Z,3.79
2019-01-10T13:43:27.006Z,3.40
2019-01-10T13:48:35.930Z,2.89
2019-01-10T13:53:44.895Z,2.88
2019-01-10T13:58:53.915Z,2.76
2019-01-10T14:04:02.858Z,3.26
2019-01-10T14:09:11.928Z,3.34
2019-01-10T14:14:20.846Z,2.48
2019-01-10T14:19:29.806Z,2.64
2019-01-10T14:24:38.746Z,2.91
2019-01-10T14:29:47.702Z,2.87
2019-01-10T14:34:56.642Z,2.71
2019-01-10T14:40:05.594Z,2.64
2019-01-10T14:45:14.600Z,2.50
2019-01-10T14:50:23.534Z,3.05
2019-01-10T14:55:32.522Z,2.32
2019-01-10T15:00:41.469Z,1.28
2019-01-10T15:05:50.428Z,1.36
2019-01-10T15:10:59.390Z,1.21
2019-01-10T15:16:08.455Z,1.43
2019-01-10T15:21:17.386Z,1.21
2019-01-10T15:26:26.371Z,1.09
2019-01-10T15:31:35.290Z,0.98
2019-01-10T15:36:44.254Z,1.51
2019-01-10T15:41:53.183Z,1.37
2019-01-10T15:47:02.194Z,1.79
2019-01-10T15:52:11.130Z,1.32
2019-01-10T15:57:20.114Z,1.62
2019-01-10T16:02:29.041Z,1.87
2019-01-10T16:07:38.077Z,2.35
2019-01-10T16:12:47.018Z,2.58
2019-01-10T16:17:56.063Z,2.06
2019-01-10T16:23:05.009Z,1.99
2019-01-10T16:28:14.058Z,1.92
2019-01-10T16:33:22.986Z,1.51
2019-01-10T16:38:31.933Z,2.16
2019-01-10T16:43:40.862Z,2.58
2019-01-10T16:48:49.885Z,2.67
2019-01-10T16:53:58.806Z,2.49
2019-01-10T16:59:08.111Z,2.44
2019-01-10T17:04:17.059Z,2.47
2019-01-10T17:09:26.014Z,2.57
2019-01-10T17:14:35.071Z,2.66
2019-01-10T17:19:44.020Z,2.81
2019-01-10T17:24:52.945Z,2.62
2019-01-10T17:30:01.886Z,2.86
2019-01-10T17:35:10.910Z,3.49
2019-01-10T17:40:19.860Z,3.34
2019-01-10T17:45:28.810Z,3.84
2019-01-10T17:50:37.764Z,3.99
2019-01-10T17:55:46.790Z,3.64
2019-01-10T18:00:55.739Z,4.56
2019-01-10T18:06:04.742Z,4.68
2019-01-10T18:11:13.678Z,4.27
2019-01-10T18:16:22.674Z,4.65
2019-01-10T18:21:31.623Z,4.22
2019-01-10T18:26:40.627Z,4.63
2019-01-10T18:31:49.560Z,4.81
2019-01-10T18:36:58.591Z,5.28
2019-01-10T18:42:07.559Z,5.42
2019-01-10T18:47:16.529Z,4.99
2019-01-10T18:52:25.567Z,4.79
2019-01-10T18:57:34.506Z,5.19
2019-01-10T19:02:43.463Z,5.27
2019-01-10T19:07:52.402Z,4.59
2019-01-10T19:13:01.356Z,5.35
2019-01-10T19:18:10.310Z,4.70
2019-01-10T19:23:19.337Z,5.01
2019-01-10T19:28:28.261Z,5.40
2019-01-10T19:33:37.254Z,5.06
2019-01-10T19:38:46.177Z,4.93
2019-01-10T19:43:55.194Z,5.34
2019-01-10T19:49:04.173Z,5.86
2019-01-10T19:54:13.127Z,6.69
2019-01-10T19:59:22.055Z,6.49
2019-01-10T20:04:31.092Z,6.12
2019-01-10T20:09:40.026Z,6.58
2019-01-10T20:14:49.042Z,6.68
2019-01-10T20:19:57.990Z,6.88
2019-01-10T20:25:07.062Z,6.70
2019-01-10T20:30:16.594Z,6.69
2019-01-10T20:35:24.474Z,6.67
2019-01-10T20:40:33.467Z,6.69
2019-01-10T20:45:42.390Z,7.43
2019-01-10T20:50:51.806Z,7.24
2019-01-10T20:55:59.879Z,8.07
2019-01-10T21:01:08.891Z,8.87
2019-01-10T21:06:17.867Z,9.69
2019-01-10T21:11:26.838Z,9.84
2019-01-10T21:16:35.810Z,11.27
2019-01-10T21:21:44.731Z,12.06
2019-01-10T21:26:53.830Z,12.84
2019-01-10T21:32:02.786Z,13.55
2019-01-10T21:37:11.750Z,14.37
2019-01-10T21:42:20.684Z,16.77
2019-01-10T21:47:29.630Z,17.25
2019-01-10T21:52:38.558Z,18.52
2019-01-10T21:57:47.542Z,19.66
2019-01-10T22:02:56.467Z,19.60
2019-01-10T22:08:05.494Z,21.34
2019-01-10T22:13:14.483Z,22.10
2019-01-10T22:18:23.430Z,21.42
2019-01-10T22:23:32.355Z,23.54
2019-01-10T22:28:41.307Z,23.71
2019-01-10T22:33:50.246Z,24.53
2019-01-10T22:38:59.206Z,24.19
2019-01-10T22:44:08.146Z,26.05
2019-01-10T22:49:17.150Z,25.58
2019-01-10T22:54:26.114Z,26.29
2019-01-10T22:59:35.114Z,27.91
2019-01-10T23:04:44.026Z,28.70
2019-01-10T23:09:53.046Z,28.51
2019-01-10T23:15:01.996Z,31.61
2019-01-10T23:20:11.002Z,31.87
2019-01-10T23:25:19.981Z,32.67
2019-01-10T23:30:28.994Z,35.19
2019-01-10T23:35:37.910Z,36.09
2019-01-10T23:40:46.930Z,36.93
2019-01-10T23:45:55.876Z,40.03
2019-01-10T23:51:04.862Z,40.11
2019-01-10T23:56:13.779Z,41.28
